Time;durP1;ratioP1;P1;durP2;ratioP2;P2;SDS_P1;SDS_P2;PMS_P1;PMS_P2;Temp;Humidity;BMP_temperature;BMP_pressure;BME280_temperature;BME280_humidity;BME280_pressure;Samples;Min_cycle;Max_cycle;Signal;HPM_P1;HPM_P2
2021/11/07 00:04:44;;;;;;;;;;;4.10;1.00;;;;;;5031101;28;20004;-71
2021/11/07 00:12:19;;;;;;;;;;;4.20;1.00;;;;;;5029533;28;19920;-70
2021/11/07 00:14:50;;;;;;;;;;;4.20;1.00;;;;;;5030877;28;19960;-71
2021/11/07 00:17:18;;;;;;;;;;;4.30;1.00;;;;;;5012131;28;19909;-70
2021/11/07 00:19:50;;;;;;;;;;;4.30;1.00;;;;;;5013420;28;20239;-71
2021/11/07 00:27:39;;;;;;;;;;;4.30;1.00;;;;;;5029562;28;20378;-70
2021/11/07 00:30:17;;;;;;;;;;;4.30;1.00;;;;;;5030601;28;19972;-71
2021/11/07 00:37:58;;;;;;;;;;;4.00;1.00;;;;;;5010449;28;19909;-71
2021/11/07 00:43:16;;;;;;;;;;;4.00;1.00;;;;;;4988629;28;19916;-70
2021/11/07 00:45:58;;;;;;;;;;;4.00;1.00;;;;;;5010417;28;20270;-73
2021/11/07 00:48:27;;;;;;;;;;;4.00;1.00;;;;;;5010456;28;20032;-72
2021/11/07 00:51:09;;;;;;;;;;;3.90;1.00;;;;;;5022757;28;19919;-70
2021/11/07 00:54:04;;;;;;;;;;;3.90;1.00;;;;;;5029266;28;19909;-70
2021/11/07 00:56:33;;;;;;;;;;;3.80;1.00;;;;;;5029350;28;19909;-71
2021/11/07 01:01:27;;;;;;;;;;;3.70;1.00;;;;;;4971096;28;19951;-71
2021/11/07 01:03:53;;;;;;;;;;;3.60;1.00;;;;;;4970361;28;20418;-71
2021/11/07 01:06:19;;;;;;;;;;;3.60;1.00;;;;;;4970595;28;19921;-72
2021/11/07 01:08:45;;;;;;;;;;;3.60;1.00;;;;;;4971254;28;19910;-71
2021/11/07 01:11:10;;;;;;;;;;;3.60;1.00;;;;;;4970936;28;19917;-72
2021/11/07 01:13:36;;;;;;;;;;;3.60;1.00;;;;;;4969955;28;19946;-72
2021/11/07 01:16:02;;;;;;;;;;;3.70;1.00;;;;;;4970611;28;20027;-71
2021/11/07 01:18:28;;;;;;;;;;;3.70;1.00;;;;;;4971307;28;20303;-71
2021/11/07 01:20:54;;;;;;;;;;;3.60;1.00;;;;;;4970425;28;20017;-72
2021/11/07 01:25:49;;;;;;;;;;;3.70;1.00;;;;;;4970336;28;19915;-72
2021/11/07 01:28:16;;;;;;;;;;;3.80;1.00;;;;;;4969790;28;19977;-71
2021/11/07 01:30:51;;;;;;;;;;;3.80;1.00;;;;;;4971038;28;19926;-73
2021/11/07 01:33:23;;;;;;;;;;;3.80;1.00;;;;;;4970536;28;19963;-71
2021/11/07 01:38:29;;;;;;;;;;;3.90;1.00;;;;;;4970592;28;20013;-72
2021/11/07 01:41:04;;;;;;;;;;;3.90;1.00;;;;;;4970385;28;20013;-71
2021/11/07 01:43:30;;;;;;;;;;;3.90;1.00;;;;;;4969948;28;19925;-71
2021/11/07 01:48:30;;;;;;;;;;;3.90;1.00;;;;;;4970713;28;19942;-73
2021/11/07 01:50:57;;;;;;;;;;;3.90;1.00;;;;;;4969900;28;19936;-72
2021/11/07 01:53:27;;;;;;;;;;;3.90;1.00;;;;;;4969552;28;19911;-72
2021/11/07 01:55:53;;;;;;;;;;;3.90;1.00;;;;;;4970253;28;19957;-72
2021/11/07 01:58:19;;;;;;;;;;;3.90;1.00;;;;;;4969884;28;19910;-71
2021/11/07 02:00:46;;;;;;;;;;;3.90;1.00;;;;;;4970049;28;19918;-72
2021/11/07 02:03:12;;;;;;;;;;;3.90;1.00;;;;;;4969852;28;20034;-71
2021/11/07 02:05:37;;;;;;;;;;;3.80;1.00;;;;;;4970194;28;20322;-73
2021/11/07 02:08:06;;;;;;;;;;;3.80;1.00;;;;;;4970191;28;20018;-71
2021/11/07 02:10:31;;;;;;;;;;;3.70;1.00;;;;;;4969926;28;19926;-71
2021/11/07 02:12:56;;;;;;;;;;;3.70;1.00;;;;;;4969310;28;19910;-71
2021/11/07 02:15:22;;;;;;;;;;;3.70;1.00;;;;;;4970612;28;20045;-72
2021/11/07 02:17:48;;;;;;;;;;;3.70;1.00;;;;;;4970501;28;19918;-71
2021/11/07 02:20:25;;;;;;;;;;;3.80;1.00;;;;;;4969661;28;20435;-72
2021/11/07 02:22:51;;;;;;;;;;;3.80;1.00;;;;;;4969546;28;19910;-71
2021/11/07 02:25:17;;;;;;;;;;;3.80;1.00;;;;;;4970981;28;19977;-72
2021/11/07 02:27:43;;;;;;;;;;;3.90;1.00;;;;;;4972637;28;19914;-72
2021/11/07 02:30:12;;;;;;;;;;;3.70;1.00;;;;;;4972349;28;19981;-74
2021/11/07 02:32:37;;;;;;;;;;;3.70;1.00;;;;;;4970462;28;19910;-71
2021/11/07 02:35:03;;;;;;;;;;;3.60;1.00;;;;;;4970070;28;19918;-71
2021/11/07 02:37:29;;;;;;;;;;;3.60;1.00;;;;;;4970439;28;19926;-72
2021/11/07 02:39:55;;;;;;;;;;;3.60;1.00;;;;;;4973408;28;19910;-72
2021/11/07 02:42:21;;;;;;;;;;;3.60;1.00;;;;;;4972211;28;20423;-73
2021/11/07 02:44:47;;;;;;;;;;;3.70;1.00;;;;;;4973808;28;20671;-71
2021/11/07 02:47:15;;;;;;;;;;;3.70;1.00;;;;;;4972812;28;19914;-71
2021/11/07 02:49:41;;;;;;;;;;;3.70;1.00;;;;;;4973625;28;19918;-72
2021/11/07 02:52:08;;;;;;;;;;;3.70;1.00;;;;;;4972348;28;20013;-73
2021/11/07 02:54:34;;;;;;;;;;;3.60;1.00;;;;;;4974069;28;20306;-71
2021/11/07 02:57:01;;;;;;;;;;;3.60;1.00;;;;;;4972718;28;19965;-71
2021/11/07 02:59:28;;;;;;;;;;;3.60;1.00;;;;;;4973949;28;20363;-72
2021/11/07 03:01:55;;;;;;;;;;;3.60;1.00;;;;;;4972372;28;19961;-72
2021/11/07 03:04:21;;;;;;;;;;;3.50;1.00;;;;;;4973264;28;19911;-71
2021/11/07 03:06:47;;;;;;;;;;;3.50;1.00;;;;;;4972908;28;19910;-71
2021/11/07 03:09:20;;;;;;;;;;;3.50;1.00;;;;;;4973509;28;20354;-71
2021/11/07 03:11:46;;;;;;;;;;;3.40;1.00;;;;;;4971986;28;20336;-71
2021/11/07 03:14:20;;;;;;;;;;;3.50;1.00;;;;;;4973465;28;19960;-72
2021/11/07 03:16:46;;;;;;;;;;;3.50;1.00;;;;;;4972934;28;20339;-71
2021/11/07 03:19:13;;;;;;;;;;;3.40;1.00;;;;;;4973452;28;19965;-73
2021/11/07 03:21:39;;;;;;;;;;;3.50;1.00;;;;;;4972436;28;19911;-72
2021/11/07 03:24:05;;;;;;;;;;;3.50;1.00;;;;;;4972720;28;19910;-72
2021/11/07 03:26:33;;;;;;;;;;;3.60;1.00;;;;;;4971725;28;19910;-72
2021/11/07 03:29:01;;;;;;;;;;;3.60;1.00;;;;;;4973013;28;19918;-72
2021/11/07 03:34:01;;;;;;;;;;;3.70;1.00;;;;;;4972987;28;19914;-71
2021/11/07 03:36:32;;;;;;;;;;;3.70;1.00;;;;;;4972535;28;19987;-72
2021/11/07 03:38:57;;;;;;;;;;;3.80;1.00;;;;;;4973301;28;21720;-72
2021/11/07 03:41:23;;;;;;;;;;;3.80;1.00;;;;;;4972098;28;20021;-71
2021/11/07 03:43:49;;;;;;;;;;;3.80;1.00;;;;;;4972561;28;20409;-72
2021/11/07 03:46:15;;;;;;;;;;;3.90;1.00;;;;;;4972436;28;19977;-72
2021/11/07 03:48:41;;;;;;;;;;;3.90;1.00;;;;;;4972503;28;19926;-72
2021/11/07 03:51:11;;;;;;;;;;;3.90;1.00;;;;;;4966291;28;19960;-72
2021/11/07 03:53:37;;;;;;;;;;;4.00;1.00;;;;;;4972843;28;19986;-72
2021/11/07 03:56:03;;;;;;;;;;;4.00;1.00;;;;;;4972305;28;19917;-73
2021/11/07 03:58:28;;;;;;;;;;;4.00;1.00;;;;;;4972691;28;19933;-72
2021/11/07 04:00:54;;;;;;;;;;;4.00;1.00;;;;;;4971526;28;20611;-71
2021/11/07 04:03:19;;;;;;;;;;;4.00;1.00;;;;;;4972136;28;19918;-71
2021/11/07 04:05:45;;;;;;;;;;;4.00;1.00;;;;;;4972161;28;19922;-73
2021/11/07 04:08:10;;;;;;;;;;;3.90;1.00;;;;;;4972649;28;19922;-71
2021/11/07 04:10:36;;;;;;;;;;;3.90;1.00;;;;;;4971650;28;19914;-71
2021/11/07 04:13:05;;;;;;;;;;;4.00;1.00;;;;;;4970816;28;19910;-71
2021/11/07 04:15:30;;;;;;;;;;;4.00;1.00;;;;;;4972475;28;20348;-71
2021/11/07 04:17:56;;;;;;;;;;;4.00;1.00;;;;;;4972243;28;19946;-71
2021/11/07 04:20:22;;;;;;;;;;;4.00;1.00;;;;;;4971735;28;19918;-71
2021/11/07 04:22:48;;;;;;;;;;;4.00;1.00;;;;;;4971470;28;19950;-72
2021/11/07 04:25:14;;;;;;;;;;;4.00;1.00;;;;;;4971770;28;19993;-71
2021/11/07 04:27:40;;;;;;;;;;;4.00;1.00;;;;;;4972199;28;20200;-72
2021/11/07 04:30:06;;;;;;;;;;;4.00;1.00;;;;;;4972186;28;19977;-73
2021/11/07 04:32:32;;;;;;;;;;;4.00;1.00;;;;;;4970923;28;19966;-72
2021/11/07 04:34:57;;;;;;;;;;;4.00;1.00;;;;;;4972089;28;19922;-72
2021/11/07 04:37:23;;;;;;;;;;;3.90;1.00;;;;;;4971578;28;19910;-70
2021/11/07 04:39:49;;;;;;;;;;;3.90;1.00;;;;;;4972071;28;19958;-70
2021/11/07 04:42:15;;;;;;;;;;;3.80;1.00;;;;;;4970108;28;19914;-70
2021/11/07 04:44:40;;;;;;;;;;;3.60;1.00;;;;;;4972376;28;19917;-70
2021/11/07 04:47:06;;;;;;;;;;;3.40;1.00;;;;;;4971312;28;19914;-70
2021/11/07 04:49:32;;;;;;;;;;;3.30;1.00;;;;;;4971875;28;19921;-71
2021/11/07 04:51:58;;;;;;;;;;;3.20;1.00;;;;;;4970812;28;19982;-70
2021/11/07 04:54:24;;;;;;;;;;;3.10;1.00;;;;;;4971644;28;20418;-71
2021/11/07 04:56:50;;;;;;;;;;;3.00;1.00;;;;;;4970182;28;19910;-70
2021/11/07 04:59:16;;;;;;;;;;;3.00;1.00;;;;;;4971219;28;20036;-70
2021/11/07 05:01:41;;;;;;;;;;;3.00;1.00;;;;;;4969768;28;19996;-70
2021/11/07 05:04:08;;;;;;;;;;;3.00;1.00;;;;;;4970811;28;19910;-70
2021/11/07 05:06:33;;;;;;;;;;;3.10;1.00;;;;;;4970630;28;20004;-70
2021/11/07 05:08:59;;;;;;;;;;;3.10;1.00;;;;;;4971553;28;20001;-70
2021/11/07 05:11:25;;;;;;;;;;;3.20;1.00;;;;;;4970473;28;19911;-72
2021/11/07 05:13:51;;;;;;;;;;;3.20;1.00;;;;;;4970829;28;19914;-70
2021/11/07 05:16:16;;;;;;;;;;;3.20;1.00;;;;;;4970471;28;19915;-72
2021/11/07 05:18:43;;;;;;;;;;;3.20;1.00;;;;;;4970957;28;20395;-70
2021/11/07 05:21:09;;;;;;;;;;;3.20;1.00;;;;;;4970053;28;19925;-72
2021/11/07 05:23:34;;;;;;;;;;;3.30;1.00;;;;;;4970423;28;19914;-70
2021/11/07 05:26:00;;;;;;;;;;;3.30;1.00;;;;;;4970769;28;19929;-71
2021/11/07 05:28:26;;;;;;;;;;;3.40;1.00;;;;;;4970659;28;20001;-71
2021/11/07 05:30:51;;;;;;;;;;;3.40;1.00;;;;;;4970599;28;19960;-71
2021/11/07 05:33:17;;;;;;;;;;;3.50;1.00;;;;;;4970275;28;19911;-71
2021/11/07 05:35:43;;;;;;;;;;;3.50;1.00;;;;;;4970732;28;19980;-73
2021/11/07 05:38:09;;;;;;;;;;;3.50;1.00;;;;;;4970786;28;19988;-72
2021/11/07 05:40:34;;;;;;;;;;;3.60;1.00;;;;;;4970591;28;19917;-73
2021/11/07 05:43:00;;;;;;;;;;;3.60;1.00;;;;;;4969760;28;20398;-72
2021/11/07 05:45:25;;;;;;;;;;;3.60;1.00;;;;;;4970656;28;20363;-73
2021/11/07 05:47:51;;;;;;;;;;;3.60;1.00;;;;;;4970699;28;19910;-73
2021/11/07 05:50:17;;;;;;;;;;;3.60;1.00;;;;;;4969839;28;19944;-72
2021/11/07 05:52:43;;;;;;;;;;;3.60;1.00;;;;;;4969861;28;19910;-73
2021/11/07 05:55:09;;;;;;;;;;;3.60;1.00;;;;;;4970282;28;19933;-71
2021/11/07 05:57:35;;;;;;;;;;;3.60;1.00;;;;;;4970437;28;19919;-72
2021/11/07 06:00:00;;;;;;;;;;;3.60;1.00;;;;;;4970659;28;19918;-71
2021/11/07 06:02:26;;;;;;;;;;;3.60;1.00;;;;;;4968335;28;19917;-75
2021/11/07 06:04:51;;;;;;;;;;;3.60;1.00;;;;;;4970919;28;19937;-74
2021/11/07 06:07:18;;;;;;;;;;;3.60;1.00;;;;;;4970222;28;20285;-74
2021/11/07 06:09:43;;;;;;;;;;;3.60;1.00;;;;;;4970371;28;20008;-74
2021/11/07 06:12:10;;;;;;;;;;;3.60;1.00;;;;;;4969058;28;19962;-73
2021/11/07 06:14:36;;;;;;;;;;;3.60;1.00;;;;;;4976031;28;19946;-71
2021/11/07 06:17:02;;;;;;;;;;;3.60;1.00;;;;;;4976334;28;20430;-71
2021/11/07 06:19:27;;;;;;;;;;;3.60;1.00;;;;;;4976971;28;19910;-71
2021/11/07 06:21:53;;;;;;;;;;;3.70;1.00;;;;;;4971371;28;20032;-73
2021/11/07 06:24:25;;;;;;;;;;;3.60;1.00;;;;;;4973872;28;19917;-72
2021/11/07 06:26:50;;;;;;;;;;;3.70;1.00;;;;;;4973202;28;19944;-71
2021/11/07 06:29:17;;;;;;;;;;;3.60;1.00;;;;;;4973584;28;20279;-71
2021/11/07 06:31:43;;;;;;;;;;;3.70;1.00;;;;;;4973559;28;20335;-71
2021/11/07 06:34:09;;;;;;;;;;;3.60;1.00;;;;;;4973310;28;19914;-74
2021/11/07 06:36:34;;;;;;;;;;;3.60;1.00;;;;;;4973447;28;19914;-71
2021/11/07 06:39:01;;;;;;;;;;;3.60;1.00;;;;;;4974335;28;19965;-74
2021/11/07 06:41:26;;;;;;;;;;;3.60;1.00;;;;;;4973119;28;19937;-71
2021/11/07 06:43:54;;;;;;;;;;;3.60;1.00;;;;;;4973169;28;19933;-71
2021/11/07 06:46:19;;;;;;;;;;;3.60;1.00;;;;;;4972890;28;19960;-72
2021/11/07 06:48:47;;;;;;;;;;;3.60;1.00;;;;;;4973367;28;20276;-71
2021/11/07 06:51:12;;;;;;;;;;;3.60;1.00;;;;;;4970797;28;19918;-72
2021/11/07 06:53:38;;;;;;;;;;;3.60;1.00;;;;;;4973234;28;20330;-71
2021/11/07 06:56:04;;;;;;;;;;;3.60;1.00;;;;;;4972984;28;19933;-72
2021/11/07 06:58:30;;;;;;;;;;;3.60;1.00;;;;;;4973462;28;20308;-72
2021/11/07 07:00:55;;;;;;;;;;;3.70;1.00;;;;;;5011349;23;19926;-73
2021/11/07 07:03:21;;;;;;;;;;;3.60;1.00;;;;;;5008291;28;20381;-72
2021/11/07 07:05:47;;;;;;;;;;;3.70;1.00;;;;;;5012058;28;19943;-72
2021/11/07 07:08:19;;;;;;;;;;;3.70;1.00;;;;;;5012856;28;19928;-72
2021/11/07 07:10:55;;;;;;;;;;;3.60;1.00;;;;;;5012512;28;19919;-72
2021/11/07 07:13:31;;;;;;;;;;;3.70;1.00;;;;;;5011637;28;19995;-72
2021/11/07 07:21:32;;;;;;;;;;;3.80;1.00;;;;;;5011832;28;20374;-72
2021/11/07 07:29:53;;;;;;;;;;;4.00;1.00;;;;;;4986039;28;20526;-73
2021/11/07 07:35:05;;;;;;;;;;;4.20;1.00;;;;;;5009091;28;19956;-73
2021/11/07 07:37:30;;;;;;;;;;;4.30;1.00;;;;;;5009015;28;20244;-73
2021/11/07 07:39:56;;;;;;;;;;;4.40;1.00;;;;;;5009112;28;19924;-72
2021/11/07 07:42:22;;;;;;;;;;;4.40;1.00;;;;;;5006754;28;19959;-72
2021/11/07 07:44:51;;;;;;;;;;;4.50;1.00;;;;;;5009169;28;19929;-72
2021/11/07 07:47:17;;;;;;;;;;;4.50;1.00;;;;;;5007071;28;19944;-72
2021/11/07 07:49:43;;;;;;;;;;;4.40;1.00;;;;;;5008908;28;19924;-72
2021/11/07 07:52:09;;;;;;;;;;;4.40;1.00;;;;;;5007252;28;20444;-73
2021/11/07 07:54:35;;;;;;;;;;;4.30;1.00;;;;;;5009293;28;19913;-72
2021/11/07 07:57:00;;;;;;;;;;;4.40;1.00;;;;;;5010296;28;19920;-71
2021/11/07 07:59:26;;;;;;;;;;;4.50;1.00;;;;;;5012048;28;19973;-73
2021/11/07 08:01:52;;;;;;;;;;;4.50;1.00;;;;;;5010287;28;20306;-72
2021/11/07 08:04:18;;;;;;;;;;;4.50;1.00;;;;;;5011212;28;19917;-72
2021/11/07 08:06:44;;;;;;;;;;;4.50;1.00;;;;;;5010766;28;20362;-72
2021/11/07 08:09:09;;;;;;;;;;;4.50;1.00;;;;;;5011328;28;19916;-73
2021/11/07 08:11:35;;;;;;;;;;;4.60;1.00;;;;;;5010247;28;19913;-72
2021/11/07 08:14:01;;;;;;;;;;;4.70;1.00;;;;;;5011125;28;20493;-72
2021/11/07 08:16:27;;;;;;;;;;;4.60;99.90;;;;;;5010378;28;19909;-73
2021/11/07 08:18:53;;;;;;;;;;;4.50;99.90;;;;;;5011523;28;19992;-72
2021/11/07 08:21:19;;;;;;;;;;;4.50;99.90;;;;;;5011222;28;19975;-72
2021/11/07 08:23:48;;;;;;;;;;;4.50;99.90;;;;;;5010632;28;19913;-72
2021/11/07 08:26:14;;;;;;;;;;;4.70;99.90;;;;;;5010850;28;19921;-72
2021/11/07 08:28:39;;;;;;;;;;;4.80;99.90;;;;;;5010831;28;19993;-73
2021/11/07 08:31:12;;;;;;;;;;;5.00;99.90;;;;;;5010622;28;19955;-73
2021/11/07 08:33:39;;;;;;;;;;;5.10;99.90;;;;;;5010569;28;19917;-72
2021/11/07 08:36:10;;;;;;;;;;;5.30;98.30;;;;;;5010839;28;19910;-73
2021/11/07 08:38:47;;;;;;;;;;;5.50;1.00;;;;;;5011099;28;19913;-72
2021/11/07 08:41:14;;;;;;;;;;;5.70;99.90;;;;;;5010792;28;20263;-73
2021/11/07 09:02:38;;;;;;;;;;;6.50;1.00;;;;;;4997379;28;19913;-72
2021/11/07 09:05:14;;;;;;;;;;;6.50;1.00;;;;;;4999062;28;20104;-72
2021/11/07 09:10:28;;;;;;;;;;;6.60;99.90;;;;;;4998262;28;20437;-71
2021/11/07 09:12:53;;;;;;;;;;;6.40;99.90;;;;;;4998275;28;20302;-71
2021/11/07 09:15:19;;;;;;;;;;;6.30;1.00;;;;;;5000204;28;19914;-73
2021/11/07 09:17:47;;;;;;;;;;;6.30;1.00;;;;;;4997946;28;20340;-72
2021/11/07 09:20:23;;;;;;;;;;;6.40;1.00;;;;;;4999256;28;19940;-71
2021/11/07 09:22:56;;;;;;;;;;;6.60;1.00;;;;;;4997731;28;19913;-74
2021/11/07 09:25:25;;;;;;;;;;;6.70;99.90;;;;;;5001498;28;19913;-71
2021/11/07 09:27:58;;;;;;;;;;;7.00;1.00;;;;;;4998431;28;19914;-72
2021/11/07 09:33:13;;;;;;;;;;;6.80;1.00;;;;;;4997556;28;19917;-73
2021/11/07 09:35:56;;;;;;;;;;;6.60;1.00;;;;;;4998052;28;19920;-72
2021/11/07 09:38:32;;;;;;;;;;;6.70;1.00;;;;;;5000348;28;19968;-73
2021/11/07 09:43:52;;;;;;;;;;;6.60;48.90;;;;;;4967860;28;19913;-71
2021/11/07 09:49:16;;;;;;;;;;;6.30;99.90;;;;;;5006754;28;19916;-73
2021/11/07 09:51:45;;;;;;;;;;;6.30;99.90;;;;;;5009019;28;19996;-71
2021/11/07 09:54:12;;;;;;;;;;;6.60;99.90;;;;;;4991607;28;19944;-72
2021/11/07 09:56:44;;;;;;;;;;;7.00;97.40;;;;;;5008800;28;20371;-73
2021/11/07 09:59:09;;;;;;;;;;;8.70;99.90;;;;;;5009543;28;19996;-72
2021/11/07 10:01:35;;;;;;;;;;;12.30;1.00;;;;;;5008846;28;19993;-72
2021/11/07 10:04:03;;;;;;;;;;;13.70;99.90;;;;;;5009034;28;19913;-71
2021/11/07 10:06:32;;;;;;;;;;;14.30;99.90;;;;;;5009188;28;19964;-71
2021/11/07 10:09:00;;;;;;;;;;;13.20;99.90;;;;;;5009376;28;20377;-72
2021/11/07 10:11:36;;;;;;;;;;;12.50;99.90;;;;;;5009269;28;20397;-71
2021/11/07 10:14:15;;;;;;;;;;;12.80;99.90;;;;;;5008766;28;19910;-71
2021/11/07 10:16:48;;;;;;;;;;;13.00;99.90;;;;;;5008973;28;19913;-74
2021/11/07 10:21:51;;;;;;;;;;;12.10;99.90;;;;;;5008607;28;19910;-70
2021/11/07 10:24:22;;;;;;;;;;;11.30;99.90;;;;;;5009252;28;20007;-72
2021/11/07 10:26:56;;;;;;;;;;;10.60;99.90;;;;;;5008519;28;19921;-72
2021/11/07 10:29:36;;;;;;;;;;;9.90;99.90;;;;;;5009538;28;20016;-71
2021/11/07 10:40:21;;;;;;;;;;;9.70;99.90;;;;;;5010216;28;19909;-73
2021/11/07 10:45:30;;;;;;;;;;;10.20;99.90;;;;;;5009513;28;19957;-72
2021/11/07 10:53:14;;;;;;;;;;;10.60;99.90;;;;;;5008598;28;20013;-72
2021/11/07 10:55:44;;;;;;;;;;;10.50;99.90;;;;;;5008510;28;19945;-72
2021/11/07 10:58:10;;;;;;;;;;;10.80;99.90;;;;;;5009234;28;19995;-72
2021/11/07 11:00:37;;;;;;;;;;;10.90;99.90;;;;;;5010424;28;20338;-73
2021/11/07 11:03:07;;;;;;;;;;;11.00;99.90;;;;;;5012350;28;19916;-72
2021/11/07 11:05:52;;;;;;;;;;;10.50;99.90;;;;;;5013223;28;20000;-71
2021/11/07 11:08:23;;;;;;;;;;;9.80;99.90;;;;;;5013795;28;20286;-72
2021/11/07 11:10:59;;;;;;;;;;;9.50;99.90;;;;;;5012060;28;19913;-72
2021/11/07 11:16:27;;;;;;;;;;;11.20;99.90;;;;;;5012506;28;20005;-72
2021/11/07 11:22:03;;;;;;;;;;;12.40;99.90;;;;;;5012064;28;19909;-70
2021/11/07 11:24:51;;;;;;;;;;;12.30;99.90;;;;;;5013170;28;19913;-74
2021/11/07 11:40:07;;;;;;;;;;;13.20;99.90;;;;;;4993085;28;19921;-73
2021/11/07 11:43:18;;;;;;;;;;;13.40;99.90;;;;;;4991605;28;19910;-72
2021/11/07 11:45:25;;;;;;;;;;;13.50;99.90;;;;;;4984534;28;20294;-72
2021/11/07 11:48:23;;;;;;;;;;;13.00;99.90;;;;;;4992633;28;19914;-73
2021/11/07 11:56:15;;;;;;;;;;;11.80;99.90;;;;;;4992713;28;20378;-73
2021/11/07 11:59:06;;;;;;;;;;;11.40;99.90;;;;;;4992296;28;19918;-71
2021/11/07 12:04:11;;;;;;;;;;;11.20;99.90;;;;;;4993138;28;20028;-72
2021/11/07 12:12:07;;;;;;;;;;;10.60;99.90;;;;;;4989637;28;20290;-70
2021/11/07 12:14:51;;;;;;;;;;;10.60;99.90;;;;;;4994559;28;19913;-71
2021/11/07 12:17:25;;;;;;;;;;;10.40;99.90;;;;;;4976352;28;20068;-71
2021/11/07 12:19:51;;;;;;;;;;;10.20;99.90;;;;;;4994362;28;20302;-70
2021/11/07 12:22:21;;;;;;;;;;;10.20;99.90;;;;;;4993090;28;19918;-72
2021/11/07 12:24:46;;;;;;;;;;;10.20;99.90;;;;;;5000383;28;19913;-72
2021/11/07 12:27:34;;;;;;;;;;;10.10;99.90;;;;;;5010039;28;19959;-75
2021/11/07 12:30:03;;;;;;;;;;;10.00;99.90;;;;;;4992368;28;19917;-73
2021/11/07 12:32:33;;;;;;;;;;;10.00;99.90;;;;;;5009248;28;19913;-72
2021/11/07 12:40:49;;;;;;;;;;;9.40;99.90;;;;;;4940132;28;19910;-73
2021/11/07 12:43:22;;;;;;;;;;;9.30;99.90;;;;;;4991861;28;20305;-73
2021/11/07 12:45:52;;;;;;;;;;;9.50;99.90;;;;;;4992505;28;20370;-70
2021/11/07 12:48:38;;;;;;;;;;;9.70;99.90;;;;;;5010979;28;19977;-72
2021/11/07 12:51:05;;;;;;;;;;;9.70;99.90;;;;;;5004864;28;20406;-71
2021/11/07 12:53:50;;;;;;;;;;;9.70;99.90;;;;;;5010205;28;19917;-73
2021/11/07 12:56:26;;;;;;;;;;;9.80;99.90;;;;;;5009483;28;19916;-72
2021/11/07 12:58:52;;;;;;;;;;;10.10;99.90;;;;;;5009638;28;19909;-72
2021/11/07 13:01:18;;;;;;;;;;;10.50;99.90;;;;;;5025852;23;19926;-70
2021/11/07 13:03:47;;;;;;;;;;;10.80;99.90;;;;;;4989517;28;19916;-74
2021/11/07 13:06:13;;;;;;;;;;;11.00;99.90;;;;;;4989883;28;19920;-70
2021/11/07 13:08:43;;;;;;;;;;;11.10;99.90;;;;;;4990567;28;19996;-71
2021/11/07 13:11:17;;;;;;;;;;;11.00;99.90;;;;;;4988291;28;19953;-70
2021/11/07 13:13:50;;;;;;;;;;;10.90;99.90;;;;;;4989715;28;19909;-70
2021/11/07 13:18:57;;;;;;;;;;;10.80;99.90;;;;;;4990949;28;19990;-71
2021/11/07 13:27:12;;;;;;;;;;;10.90;99.90;;;;;;4989529;28;19914;-72
2021/11/07 13:29:53;;;;;;;;;;;10.70;99.90;;;;;;4990723;28;20538;-72
2021/11/07 13:34:54;;;;;;;;;;;10.40;99.90;;;;;;4990828;28;19918;-72
2021/11/07 13:37:21;;;;;;;;;;;10.40;99.90;;;;;;4989740;28;19971;-71
2021/11/07 13:39:46;;;;;;;;;;;10.40;99.90;;;;;;4990643;28;19914;-74
2021/11/07 13:42:14;;;;;;;;;;;10.40;99.90;;;;;;4988402;28;19921;-74
2021/11/07 13:44:56;;;;;;;;;;;10.30;99.90;;;;;;4990974;28;19914;-74
2021/11/07 13:47:36;;;;;;;;;;;10.20;99.90;;;;;;4989772;28;19933;-74
2021/11/07 13:50:05;;;;;;;;;;;10.10;99.90;;;;;;4990529;28;19917;-74
2021/11/07 13:52:31;;;;;;;;;;;9.90;99.90;;;;;;4989104;28;19985;-74
2021/11/07 13:54:57;;;;;;;;;;;9.90;99.90;;;;;;4989934;28;19917;-74
2021/11/07 13:57:27;;;;;;;;;;;9.80;99.90;;;;;;4988160;28;20410;-75
2021/11/07 13:59:53;;;;;;;;;;;9.80;99.90;;;;;;4988359;28;19914;-74
2021/11/07 14:02:21;;;;;;;;;;;9.70;99.90;;;;;;4988393;28;20012;-75
2021/11/07 14:04:49;;;;;;;;;;;9.70;99.90;;;;;;4988924;28;19918;-74
2021/11/07 14:07:21;;;;;;;;;;;9.60;99.90;;;;;;4989176;28;19990;-75
2021/11/07 14:10:02;;;;;;;;;;;9.50;99.90;;;;;;4989782;28;19917;-77
2021/11/07 14:12:31;;;;;;;;;;;9.40;99.90;;;;;;4981392;28;20288;-74
2021/11/07 14:15:12;;;;;;;;;;;9.50;99.90;;;;;;4990563;28;20286;-73
2021/11/07 14:17:38;;;;;;;;;;;9.50;99.90;;;;;;4989907;28;19921;-75
2021/11/07 14:20:04;;;;;;;;;;;9.50;99.90;;;;;;4990148;28;19966;-75
2021/11/07 14:22:30;;;;;;;;;;;9.50;99.90;;;;;;4988407;28;19925;-74
2021/11/07 14:25:06;;;;;;;;;;;9.50;99.90;;;;;;4989495;28;19914;-75
2021/11/07 14:27:42;;;;;;;;;;;9.60;99.90;;;;;;4989633;28;19985;-75
2021/11/07 14:30:15;;;;;;;;;;;9.50;99.90;;;;;;4989890;28;20053;-75
2021/11/07 14:32:42;;;;;;;;;;;9.20;99.90;;;;;;4987974;28;19917;-75
2021/11/07 14:35:22;;;;;;;;;;;9.00;99.90;;;;;;4991708;28;19972;-74
2021/11/07 14:38:12;;;;;;;;;;;9.00;99.90;;;;;;4996753;28;19917;-77
2021/11/07 14:46:27;;;;;;;;;;;9.00;1.00;;;;;;4993611;28;19957;-74
2021/11/07 14:52:09;;;;;;;;;;;8.90;1.00;;;;;;4970279;28;19918;-74
2021/11/07 14:54:44;;;;;;;;;;;8.90;1.00;;;;;;4992913;28;20660;-74
2021/11/07 14:58:06;;;;;;;;;;;8.80;1.00;;;;;;4992604;28;19992;-75
2021/11/07 15:00:11;;;;;;;;;;;8.70;1.00;;;;;;4991648;28;20321;-74
2021/11/07 15:02:50;;;;;;;;;;;8.60;1.00;;;;;;4995497;28;19972;-75
2021/11/07 15:08:15;;;;;;;;;;;8.40;1.00;;;;;;4995283;28;20004;-74
2021/11/07 15:10:52;;;;;;;;;;;8.30;1.00;;;;;;4994949;28;19928;-76
2021/11/07 15:16:01;;;;;;;;;;;8.30;1.00;;;;;;4995915;28;19924;-74
2021/11/07 15:21:09;;;;;;;;;;;8.10;78.80;;;;;;4995003;28;19925;-75
2021/11/07 15:23:37;;;;;;;;;;;8.00;99.90;;;;;;4994633;28;19925;-75
2021/11/07 15:26:20;;;;;;;;;;;7.90;99.90;;;;;;4995927;28;19914;-75
2021/11/07 15:28:52;;;;;;;;;;;7.90;1.00;;;;;;4995575;28;20337;-75
2021/11/07 15:31:18;;;;;;;;;;;7.90;1.00;;;;;;4991334;28;19922;-75
2021/11/07 15:33:45;;;;;;;;;;;7.90;1.00;;;;;;4991715;28;19918;-75
2021/11/07 15:36:11;;;;;;;;;;;7.90;1.00;;;;;;4992030;28;19989;-75
2021/11/07 15:38:37;;;;;;;;;;;7.90;1.00;;;;;;4991896;28;20322;-73
2021/11/07 15:41:07;;;;;;;;;;;7.90;99.90;;;;;;4991607;28;19960;-72
2021/11/07 15:43:33;;;;;;;;;;;7.90;48.20;;;;;;4990572;28;19914;-73
2021/11/07 15:46:10;;;;;;;;;;;8.00;99.90;;;;;;4990851;28;19979;-74
2021/11/07 15:48:47;;;;;;;;;;;7.90;99.90;;;;;;4991311;28;19918;-72
2021/11/07 15:51:28;;;;;;;;;;;7.90;99.90;;;;;;4986601;28;20009;-74
2021/11/07 15:56:42;;;;;;;;;;;8.00;99.90;;;;;;4991293;28;19945;-70
2021/11/07 16:01:41;;;;;;;;;;;8.10;99.90;;;;;;4991223;28;20326;-72
2021/11/07 16:06:58;;;;;;;;;;;8.10;99.90;;;;;;4990704;28;19952;-70
2021/11/07 16:17:17;;;;;;;;;;;8.10;99.90;;;;;;4990303;28;19921;-69
2021/11/07 16:19:45;;;;;;;;;;;8.10;1.00;;;;;;4991714;28;19936;-70
2021/11/07 16:22:10;;;;;;;;;;;8.10;1.00;;;;;;4989571;28;20447;-70
2021/11/07 16:24:36;;;;;;;;;;;8.10;1.00;;;;;;4991763;28;19989;-70
2021/11/07 16:27:06;;;;;;;;;;;8.20;1.00;;;;;;4989759;28;19996;-70
2021/11/07 16:29:33;;;;;;;;;;;8.20;1.00;;;;;;4990763;28;19969;-69
2021/11/07 16:34:40;;;;;;;;;;;8.20;1.00;;;;;;4991136;28;19914;-70
2021/11/07 16:37:10;;;;;;;;;;;8.20;1.00;;;;;;4982856;28;19920;-69
2021/11/07 16:39:48;;;;;;;;;;;8.20;1.00;;;;;;4991185;28;19997;-70
2021/11/07 16:42:15;;;;;;;;;;;8.20;1.00;;;;;;4989642;28;20410;-70
2021/11/07 16:44:41;;;;;;;;;;;8.30;1.00;;;;;;4991409;28;19917;-70
2021/11/07 16:47:12;;;;;;;;;;;8.30;1.00;;;;;;4989962;28;20286;-70
2021/11/07 16:49:38;;;;;;;;;;;8.30;1.00;;;;;;4990103;28;19917;-71
2021/11/07 16:52:16;;;;;;;;;;;8.30;1.00;;;;;;4987565;28;19928;-71
2021/11/07 16:55:05;;;;;;;;;;;8.30;1.00;;;;;;4989415;28;19918;-70
2021/11/07 16:57:33;;;;;;;;;;;8.30;1.00;;;;;;4989789;28;19922;-70
2021/11/07 17:00:15;;;;;;;;;;;8.30;1.00;;;;;;4990076;28;20683;-70
2021/11/07 17:05:15;;;;;;;;;;;8.30;1.00;;;;;;4990438;28;19913;-71
2021/11/07 17:10:26;;;;;;;;;;;8.30;1.00;;;;;;4989994;28;20061;-70
2021/11/07 17:12:57;;;;;;;;;;;8.20;1.00;;;;;;4988814;28;19924;-70
2021/11/07 17:15:27;;;;;;;;;;;8.30;1.00;;;;;;4989109;28;20393;-71
2021/11/07 17:18:06;;;;;;;;;;;8.30;1.00;;;;;;4988570;28;19914;-70
2021/11/07 17:23:07;;;;;;;;;;;8.30;1.00;;;;;;4987871;28;19914;-70
2021/11/07 17:26:00;;;;;;;;;;;8.30;1.00;;;;;;4987582;28;20009;-69
2021/11/07 17:28:24;;;;;;;;;;;8.40;1.00;;;;;;4987599;28;20357;-71
2021/11/07 17:30:56;;;;;;;;;;;8.30;1.00;;;;;;4989482;28;19921;-70
2021/11/07 17:36:24;;;;;;;;;;;8.40;1.00;;;;;;4983560;28;19925;-70
2021/11/07 17:39:07;;;;;;;;;;;8.30;1.00;;;;;;4990004;28;19917;-71
2021/11/07 17:54:54;;;;;;;;;;;8.20;1.00;;;;;;4989799;28;19994;-70
2021/11/07 17:57:21;;;;;;;;;;;8.20;1.00;;;;;;4988181;28;19972;-70
2021/11/07 17:59:47;;;;;;;;;;;8.20;1.00;;;;;;4989004;28;20000;-70
2021/11/07 18:02:13;;;;;;;;;;;8.20;54.90;;;;;;4987807;28;20012;-70
2021/11/07 18:04:40;;;;;;;;;;;8.10;99.90;;;;;;4989850;28;19918;-69
2021/11/07 18:07:11;;;;;;;;;;;8.10;1.00;;;;;;4988482;28;20009;-69
2021/11/07 18:10:00;;;;;;;;;;;8.10;1.00;;;;;;4988730;28;20409;-69
2021/11/07 18:12:26;;;;;;;;;;;8.00;31.80;;;;;;4987040;28;19917;-69
2021/11/07 18:14:52;;;;;;;;;;;7.90;99.90;;;;;;4989751;28;20322;-69